createdAt,value
2018-07-12T00:02:16.908Z,10.20
2018-07-12T00:04:44.275Z,10.20
2018-07-12T00:07:11.602Z,10.30
2018-07-12T00:09:39.081Z,10.30
2018-07-12T00:12:06.397Z,10.40
2018-07-12T00:14:33.829Z,10.40
2018-07-12T00:17:01.384Z,10.50
2018-07-12T00:19:28.731Z,10.40
2018-07-12T00:21:56.146Z,10.50
2018-07-12T00:24:24.241Z,10.50
2018-07-12T00:26:51.832Z,10.50
2018-07-12T00:29:19.168Z,10.60
2018-07-12T00:31:46.467Z,10.60
2018-07-12T00:36:41.456Z,10.60
2018-07-12T00:39:08.794Z,10.60
2018-07-12T00:41:36.112Z,10.60
2018-07-12T00:44:03.389Z,10.60
2018-07-12T00:46:30.734Z,10.60
2018-07-12T00:48:58.038Z,10.70
2018-07-12T00:51:25.516Z,10.70
2018-07-12T00:53:52.843Z,10.70
2018-07-12T00:56:20.129Z,10.70
2018-07-12T00:58:47.457Z,10.80
2018-07-12T01:01:14.906Z,10.80
2018-07-12T01:03:42.196Z,10.90
2018-07-12T01:06:09.568Z,10.90
2018-07-12T01:08:36.852Z,10.90
2018-07-12T01:11:04.180Z,10.80
2018-07-12T01:13:31.502Z,10.80
2018-07-12T01:15:58.809Z,10.80
2018-07-12T01:18:26.125Z,10.80
2018-07-12T01:20:53.421Z,10.90
2018-07-12T01:23:20.745Z,10.90
2018-07-12T01:25:48.029Z,10.90
2018-07-12T01:28:15.301Z,11.00
2018-07-12T01:30:43.269Z,10.90
2018-07-12T01:33:10.577Z,11.00
2018-07-12T01:35:37.925Z,11.00
2018-07-12T01:38:05.231Z,11.00
2018-07-12T01:40:32.584Z,11.10
2018-07-12T01:42:59.865Z,11.00
2018-07-12T01:45:27.197Z,11.10
2018-07-12T01:47:54.498Z,11.10
2018-07-12T01:50:21.925Z,11.10
2018-07-12T01:52:49.196Z,11.10
2018-07-12T01:55:16.524Z,11.10
2018-07-12T01:57:43.833Z,11.20
2018-07-12T02:00:11.143Z,11.20
2018-07-12T02:02:38.476Z,11.20
2018-07-12T02:05:05.809Z,11.20
2018-07-12T02:07:33.303Z,11.20
2018-07-12T02:10:00.764Z,11.20
2018-07-12T02:12:28.094Z,11.20
2018-07-12T02:14:55.377Z,11.10
2018-07-12T02:17:22.713Z,11.20
2018-07-12T02:19:50.089Z,11.20
2018-07-12T02:22:17.424Z,11.30
2018-07-12T02:24:44.750Z,11.40
2018-07-12T02:27:12.048Z,11.30
2018-07-12T02:29:39.333Z,11.30
2018-07-12T02:32:06.630Z,11.20
2018-07-12T02:34:34.101Z,11.20
2018-07-12T02:37:01.425Z,11.20
2018-07-12T02:39:28.941Z,11.20
2018-07-12T02:41:56.362Z,11.20
2018-07-12T02:44:24.053Z,11.20
2018-07-12T02:46:51.353Z,11.20
2018-07-12T02:49:18.971Z,11.20
2018-07-12T02:51:46.406Z,11.30
2018-07-12T02:54:13.708Z,11.20
2018-07-12T02:56:41.000Z,11.30
2018-07-12T02:59:08.318Z,11.30
2018-07-12T03:01:35.615Z,11.30
2018-07-12T03:04:02.908Z,11.30
2018-07-12T03:06:30.222Z,11.30
2018-07-12T03:08:57.558Z,11.40
2018-07-12T03:11:24.867Z,11.40
2018-07-12T03:13:52.330Z,11.40
2018-07-12T03:16:19.667Z,11.40
2018-07-12T03:18:46.953Z,11.40
2018-07-12T03:21:14.246Z,11.40
2018-07-12T03:23:41.557Z,11.40
2018-07-12T03:26:08.857Z,11.40
2018-07-12T03:28:36.144Z,11.40
2018-07-12T03:31:03.469Z,11.40
2018-07-12T03:33:30.744Z,11.40
2018-07-12T03:35:58.097Z,11.50
2018-07-12T03:38:25.420Z,11.50
2018-07-12T03:40:52.814Z,11.50
2018-07-12T03:43:20.309Z,11.60
2018-07-12T03:45:47.614Z,11.60
2018-07-12T03:48:14.948Z,11.60
2018-07-12T03:50:42.233Z,11.60
2018-07-12T03:53:09.543Z,11.70
2018-07-12T03:55:36.933Z,11.70
2018-07-12T03:58:04.227Z,11.70
2018-07-12T04:00:31.521Z,11.70
2018-07-12T04:02:58.855Z,11.80
2018-07-12T04:05:26.147Z,11.80
2018-07-12T04:07:53.480Z,11.70
2018-07-12T04:10:20.882Z,11.70
2018-07-12T04:12:48.196Z,11.80
2018-07-12T04:15:16.486Z,11.80
2018-07-12T04:17:43.805Z,11.80
2018-07-12T04:20:11.097Z,11.80
2018-07-12T04:22:38.795Z,11.80
2018-07-12T04:25:06.097Z,11.80
2018-07-12T04:27:33.377Z,11.80
2018-07-12T04:30:01.046Z,11.80
2018-07-12T04:32:28.354Z,11.80
2018-07-12T04:34:55.656Z,11.90
2018-07-12T04:37:23.002Z,11.90
2018-07-12T04:39:50.323Z,12.00
2018-07-12T04:42:17.660Z,12.10
2018-07-12T04:44:45.019Z,12.10
2018-07-12T04:47:12.296Z,12.10
2018-07-12T04:49:39.621Z,12.20
2018-07-12T04:52:06.903Z,12.30
2018-07-12T04:54:34.225Z,12.30
2018-07-12T04:57:01.528Z,12.40
2018-07-12T04:59:28.845Z,12.40
2018-07-12T05:01:56.128Z,12.40
2018-07-12T05:04:23.492Z,12.40
2018-07-12T05:06:50.777Z,12.40
2018-07-12T05:09:18.069Z,12.40
2018-07-12T05:11:45.386Z,12.40
2018-07-12T05:14:12.707Z,12.40
2018-07-12T05:16:40.043Z,12.50
2018-07-12T05:19:07.357Z,12.50
2018-07-12T05:21:34.758Z,12.60
2018-07-12T05:24:02.046Z,12.70
2018-07-12T05:26:29.374Z,12.80
2018-07-12T05:28:56.673Z,12.90
2018-07-12T05:31:24.014Z,12.90
2018-07-12T05:33:51.337Z,13.10
2018-07-12T05:36:28.489Z,13.10
2018-07-12T05:38:57.911Z,13.20
2018-07-12T05:41:26.494Z,13.30
2018-07-12T05:43:54.912Z,13.40
2018-07-12T05:46:23.365Z,13.50
2018-07-12T05:48:51.970Z,13.50
2018-07-12T05:51:20.478Z,13.60
2018-07-12T05:53:48.949Z,13.60
2018-07-12T05:56:17.902Z,13.70
2018-07-12T05:58:46.368Z,13.80
2018-07-12T06:01:26.417Z,13.70
2018-07-12T06:03:54.937Z,13.80
2018-07-12T06:06:23.456Z,13.90
2018-07-12T06:11:20.143Z,14.00
2018-07-12T06:16:16.808Z,14.10
2018-07-12T06:18:45.300Z,14.20
2018-07-12T06:21:13.790Z,14.30
2018-07-12T06:23:42.316Z,14.50
2018-07-12T06:26:10.905Z,14.50
2018-07-12T06:28:39.435Z,14.60
2018-07-12T06:31:07.993Z,14.70
2018-07-12T06:33:36.452Z,14.80
2018-07-12T06:36:04.897Z,14.80
2018-07-12T06:38:33.386Z,14.90
2018-07-12T06:41:02.408Z,14.90
2018-07-12T06:43:30.869Z,14.90
2018-07-12T06:45:59.492Z,15.00
2018-07-12T06:50:56.881Z,15.10
2018-07-12T06:53:25.563Z,15.10
2018-07-12T06:58:22.690Z,15.00
2018-07-12T07:00:51.192Z,14.90
2018-07-12T07:03:19.824Z,14.90
2018-07-12T07:05:48.311Z,14.90
2018-07-12T07:08:16.770Z,14.90
2018-07-12T07:10:45.226Z,15.00
2018-07-12T07:15:42.056Z,15.10
2018-07-12T07:18:10.634Z,15.20
2018-07-12T07:20:39.090Z,15.20
2018-07-12T07:23:07.584Z,15.40
2018-07-12T07:25:36.151Z,15.40
2018-07-12T07:28:04.614Z,15.30
2018-07-12T07:30:33.053Z,15.30
2018-07-12T07:33:01.699Z,15.30
2018-07-12T07:35:30.208Z,15.20
2018-07-12T07:37:58.719Z,15.30
2018-07-12T07:40:27.186Z,15.20
2018-07-12T07:42:55.814Z,15.20
2018-07-12T07:45:24.195Z,15.20
2018-07-12T07:47:52.747Z,15.40
2018-07-12T07:50:21.224Z,15.40
2018-07-12T07:52:50.406Z,15.50
2018-07-12T07:55:18.880Z,15.40
2018-07-12T07:57:47.594Z,15.60
2018-07-12T08:00:16.112Z,15.60
2018-07-12T08:02:44.565Z,15.60
2018-07-12T08:05:13.268Z,15.70
2018-07-12T08:07:42.166Z,15.80
2018-07-12T08:10:10.654Z,15.80
2018-07-12T08:12:39.701Z,15.80
2018-07-12T08:15:08.358Z,16.00
2018-07-12T08:17:37.500Z,16.00
2018-07-12T08:20:06.887Z,16.10
2018-07-12T08:22:35.419Z,16.20
2018-07-12T08:25:04.547Z,16.50
2018-07-12T08:27:33.226Z,16.70
2018-07-12T08:30:01.843Z,16.80
2018-07-12T08:32:30.828Z,16.60
2018-07-12T08:34:59.346Z,16.60
2018-07-12T08:37:27.865Z,16.50
2018-07-12T08:39:57.201Z,16.40
2018-07-12T08:42:25.774Z,16.30
2018-07-12T08:44:54.266Z,16.40
2018-07-12T08:47:22.747Z,16.40
2018-07-12T08:49:51.311Z,16.50
2018-07-12T08:52:19.853Z,16.60
2018-07-12T08:54:48.334Z,16.50
2018-07-12T08:59:45.652Z,16.50
2018-07-12T09:02:14.223Z,16.50
2018-07-12T09:04:42.844Z,16.60
2018-07-12T09:07:11.326Z,16.60
2018-07-12T09:09:39.902Z,16.60
2018-07-12T09:12:08.488Z,16.80
2018-07-12T09:14:36.981Z,17.20
2018-07-12T09:17:05.527Z,17.50
2018-07-12T09:19:34.009Z,17.50
2018-07-12T09:22:03.247Z,17.70
2018-07-12T09:24:31.853Z,17.70
2018-07-12T09:27:01.089Z,17.70
2018-07-12T09:29:29.686Z,17.80
2018-07-12T09:31:58.164Z,18.10
2018-07-12T09:34:26.778Z,18.30
2018-07-12T09:36:55.454Z,18.40
2018-07-12T09:39:25.074Z,18.30
2018-07-12T09:41:53.549Z,18.30
2018-07-12T09:44:22.044Z,18.10
2018-07-12T09:46:50.540Z,18.40
2018-07-12T09:49:19.259Z,18.40
2018-07-12T09:51:47.828Z,18.70
2018-07-12T09:54:17.038Z,18.60
2018-07-12T09:57:57.613Z,18.80
2018-07-12T10:00:31.691Z,18.70
2018-07-12T10:03:05.368Z,18.80
2018-07-12T10:05:39.172Z,18.90
2018-07-12T10:08:12.873Z,18.90
2018-07-12T10:10:47.228Z,19.00
2018-07-12T10:13:21.011Z,19.40
2018-07-12T10:15:53.835Z,19.70
2018-07-12T10:18:25.597Z,19.60
2018-07-12T10:20:54.105Z,19.90
2018-07-12T10:23:22.655Z,19.70
2018-07-12T10:25:51.102Z,20.40
2018-07-12T10:28:19.649Z,21.10
2018-07-12T10:30:48.713Z,21.30
2018-07-12T10:33:18.651Z,22.10
2018-07-12T10:35:48.105Z,21.90
2018-07-12T10:38:18.304Z,22.10
2018-07-12T10:40:47.349Z,22.20
2018-07-12T10:43:16.029Z,22.40
2018-07-12T10:45:44.667Z,21.90
2018-07-12T10:48:13.225Z,22.30
2018-07-12T10:50:41.743Z,22.50
2018-07-12T10:53:10.345Z,21.90
2018-07-12T10:55:38.929Z,21.80
2018-07-12T10:58:07.573Z,21.70
2018-07-12T11:00:36.124Z,22.10
2018-07-12T11:03:04.840Z,22.00
2018-07-12T11:05:33.357Z,22.10
2018-07-12T11:08:01.937Z,22.80
2018-07-12T11:10:30.625Z,22.10
2018-07-12T11:13:11.452Z,21.90
2018-07-12T11:15:40.885Z,22.00
2018-07-12T11:18:09.369Z,22.00
2018-07-12T11:20:37.854Z,23.00
2018-07-12T11:23:07.093Z,23.60
2018-07-12T11:25:35.612Z,23.40
2018-07-12T11:28:05.386Z,23.10
2018-07-12T11:33:38.933Z,23.80
2018-07-12T11:36:08.010Z,24.20
2018-07-12T11:38:37.921Z,23.60
2018-07-12T11:41:07.159Z,23.00
2018-07-12T11:43:35.869Z,22.50
2018-07-12T11:46:05.936Z,22.10
2018-07-12T11:48:35.850Z,22.40
2018-07-12T11:53:35.432Z,23.70
2018-07-12T11:56:03.956Z,23.80
2018-07-12T11:58:32.462Z,24.10
2018-07-12T12:01:02.103Z,24.80
2018-07-12T12:03:31.053Z,24.90
2018-07-12T12:05:59.543Z,25.20
2018-07-12T12:10:56.395Z,23.80
2018-07-12T12:13:26.017Z,23.20
2018-07-12T12:18:22.666Z,23.20
2018-07-12T12:20:51.249Z,23.10
2018-07-12T12:23:19.777Z,22.90
2018-07-12T12:25:49.233Z,22.50
2018-07-12T12:28:17.709Z,22.50
2018-07-12T12:30:46.368Z,22.40
2018-07-12T12:33:15.051Z,22.40
2018-07-12T12:35:43.597Z,22.70
2018-07-12T12:38:12.077Z,22.70
2018-07-12T12:40:40.566Z,22.80
2018-07-12T12:43:09.198Z,22.80
2018-07-12T12:45:37.752Z,22.80
2018-07-12T12:48:06.227Z,22.40
2018-07-12T12:50:36.227Z,22.80
2018-07-12T12:53:04.771Z,23.50
2018-07-12T12:55:33.289Z,24.00
2018-07-12T12:58:02.418Z,24.10
2018-07-12T13:00:30.992Z,23.60
2018-07-12T13:02:59.535Z,23.10
2018-07-12T13:05:28.041Z,23.00
2018-07-12T13:07:57.338Z,23.00
2018-07-12T13:10:27.646Z,22.70
2018-07-12T13:12:56.855Z,22.40
2018-07-12T13:15:25.361Z,22.30
2018-07-12T13:17:54.625Z,22.30
2018-07-12T13:20:23.148Z,22.40
2018-07-12T13:22:51.776Z,22.50
2018-07-12T13:25:20.309Z,22.60
2018-07-12T13:27:48.794Z,22.80
2018-07-12T13:30:17.263Z,23.40
2018-07-12T13:32:46.592Z,24.10
2018-07-12T13:35:15.070Z,24.10
2018-07-12T13:37:43.533Z,23.60
2018-07-12T13:40:12.133Z,23.10
2018-07-12T13:42:40.649Z,23.20
2018-07-12T13:47:37.741Z,23.70
2018-07-12T13:50:06.705Z,23.80
2018-07-12T13:52:35.842Z,24.50
2018-07-12T13:55:04.465Z,24.90
2018-07-12T13:57:33.113Z,24.90
2018-07-12T14:00:01.926Z,25.30
2018-07-12T14:02:30.456Z,25.40
2018-07-12T14:07:27.446Z,25.90
2018-07-12T14:09:55.942Z,25.90
2018-07-12T14:12:25.185Z,25.60
2018-07-12T14:14:53.666Z,25.10
2018-07-12T14:17:22.128Z,24.90
2018-07-12T14:19:50.796Z,25.10
2018-07-12T14:22:19.358Z,24.90
2018-07-12T14:24:48.177Z,24.30
2018-07-12T14:27:17.846Z,23.80
2018-07-12T14:29:46.310Z,23.40
2018-07-12T14:32:14.826Z,23.10
2018-07-12T14:34:43.488Z,22.80
2018-07-12T14:37:11.965Z,22.80
2018-07-12T14:42:08.756Z,22.70
2018-07-12T14:44:37.272Z,23.10
2018-07-12T14:47:05.417Z,23.60
2018-07-12T14:49:34.228Z,24.30
2018-07-12T14:52:02.728Z,24.40
2018-07-12T14:54:31.329Z,24.10
2018-07-12T14:56:59.881Z,24.00
2018-07-12T14:59:28.845Z,24.00
2018-07-12T15:01:57.404Z,23.70
2018-07-12T15:04:26.104Z,23.40
2018-07-12T15:06:54.636Z,23.10
2018-07-12T15:09:23.955Z,22.80
2018-07-12T15:11:52.833Z,23.10
2018-07-12T15:14:21.826Z,23.20
2018-07-12T15:16:50.408Z,23.80
2018-07-12T15:19:18.819Z,24.10
2018-07-12T15:21:47.369Z,24.30
2018-07-12T15:24:15.926Z,24.40
2018-07-12T15:26:44.425Z,24.30
2018-07-12T15:29:13.024Z,24.10
2018-07-12T15:31:41.838Z,23.80
2018-07-12T15:34:10.352Z,23.60
2018-07-12T15:36:39.514Z,23.50
2018-07-12T15:39:08.564Z,23.30
2018-07-12T15:41:37.630Z,23.30
2018-07-12T15:44:06.188Z,23.40
2018-07-12T15:46:34.901Z,23.50
2018-07-12T15:49:03.793Z,23.70
2018-07-12T15:51:32.432Z,23.70
2018-07-12T15:54:01.046Z,23.60
2018-07-12T15:56:29.698Z,23.20
2018-07-12T15:58:59.094Z,22.70
2018-07-12T16:01:27.702Z,22.70
2018-07-12T16:03:56.278Z,22.80
2018-07-12T16:06:25.297Z,23.00
2018-07-12T16:08:53.741Z,23.10
2018-07-12T16:11:22.292Z,22.90
2018-07-12T16:15:15.018Z,22.90
2018-07-12T16:17:44.189Z,22.90
2018-07-12T16:20:12.756Z,22.80
2018-07-12T16:22:41.404Z,22.80
2018-07-12T16:25:09.881Z,22.80
2018-07-12T16:27:38.389Z,22.80
2018-07-12T16:30:07.262Z,22.60
2018-07-12T16:32:36.355Z,22.50
2018-07-12T16:35:04.913Z,22.40
2018-07-12T16:37:33.381Z,22.10
2018-07-12T16:40:01.944Z,22.10
2018-07-12T16:42:30.505Z,21.90
2018-07-12T16:44:58.997Z,21.70
2018-07-12T16:47:27.521Z,21.60
2018-07-12T16:49:56.018Z,21.40
2018-07-12T16:52:25.149Z,21.30
2018-07-12T16:54:53.722Z,21.20
2018-07-12T16:57:22.303Z,21.20
2018-07-12T16:59:50.804Z,21.20
2018-07-12T17:02:19.324Z,21.10
2018-07-12T17:04:47.864Z,21.10
2018-07-12T17:07:16.452Z,21.00
2018-07-12T17:09:46.873Z,20.90
2018-07-12T17:12:15.389Z,20.80
2018-07-12T17:14:44.167Z,20.80
2018-07-12T17:17:13.029Z,20.80
2018-07-12T17:19:41.573Z,20.80
2018-07-12T17:22:10.055Z,20.80
2018-07-12T17:24:38.556Z,20.80
2018-07-12T17:27:07.100Z,20.80
2018-07-12T17:29:36.716Z,20.80
2018-07-12T17:32:05.253Z,20.80
2018-07-12T17:34:33.758Z,20.80
2018-07-12T17:37:02.294Z,20.90
2018-07-12T17:39:30.848Z,20.90
2018-07-12T17:41:59.322Z,21.00
2018-07-12T17:44:28.066Z,20.90
2018-07-12T17:46:56.554Z,20.90
2018-07-12T17:51:53.617Z,20.70
2018-07-12T17:54:22.158Z,20.70
2018-07-12T17:56:50.626Z,20.70
2018-07-12T17:59:19.153Z,20.60
2018-07-12T18:01:47.750Z,20.50
2018-07-12T18:04:16.243Z,20.50
2018-07-12T18:06:45.486Z,20.30
2018-07-12T18:09:14.250Z,20.30
2018-07-12T18:11:42.793Z,20.10
2018-07-12T18:14:11.274Z,20.10
2018-07-12T18:16:39.864Z,20.00
2018-07-12T18:19:08.326Z,19.90
2018-07-12T18:21:36.866Z,19.80
2018-07-12T18:24:05.484Z,19.70
2018-07-12T18:26:34.013Z,19.60
2018-07-12T18:29:03.134Z,19.50
2018-07-12T18:31:32.205Z,19.40
2018-07-12T18:34:00.763Z,19.30
2018-07-12T18:36:29.254Z,19.20
2018-07-12T18:38:57.724Z,19.10
2018-07-12T18:41:26.335Z,18.90
2018-07-12T18:43:54.795Z,18.80
2018-07-12T18:46:23.282Z,18.70
2018-07-12T18:48:51.861Z,18.50
2018-07-12T18:51:20.365Z,18.30
2018-07-12T18:53:48.845Z,18.10
2018-07-12T18:58:45.553Z,17.90
2018-07-12T19:01:14.173Z,17.80
2018-07-12T19:06:10.989Z,17.70
2018-07-12T19:08:39.619Z,17.60
2018-07-12T19:11:08.245Z,17.30
2018-07-12T19:13:36.706Z,17.10
2018-07-12T19:16:05.174Z,17.10
2018-07-12T19:18:33.668Z,17.10
2018-07-12T19:21:02.105Z,17.00
2018-07-12T19:23:31.537Z,17.00
2018-07-12T19:26:00.030Z,16.90
2018-07-12T19:30:56.749Z,16.70
2018-07-12T19:33:25.198Z,16.60
2018-07-12T19:35:53.678Z,16.50
2018-07-12T19:38:22.153Z,16.40
2018-07-12T19:40:50.654Z,16.20
2018-07-12T19:43:19.092Z,16.10
2018-07-12T19:45:47.585Z,16.10
2018-07-12T19:48:16.093Z,15.90
2018-07-12T19:50:44.817Z,15.80
2018-07-12T19:53:13.313Z,15.70
2018-07-12T19:58:09.981Z,15.60
2018-07-12T20:00:38.872Z,15.60
2018-07-12T20:03:08.072Z,15.40
2018-07-12T20:05:36.549Z,15.30
2018-07-12T20:08:05.230Z,15.20
2018-07-12T20:10:33.685Z,15.00
2018-07-12T20:13:02.165Z,14.90
2018-07-12T20:15:30.604Z,14.80
2018-07-12T20:17:59.205Z,14.70
2018-07-12T20:20:27.703Z,14.60
2018-07-12T20:22:56.240Z,14.50
2018-07-12T20:25:24.691Z,14.50
2018-07-12T20:27:53.283Z,14.60
2018-07-12T20:30:21.728Z,14.70
2018-07-12T20:32:50.217Z,14.60
2018-07-12T20:35:18.746Z,14.50
2018-07-12T20:37:47.227Z,14.30
2018-07-12T20:40:15.714Z,14.30
2018-07-12T20:45:12.332Z,14.20
2018-07-12T20:47:40.927Z,14.10
2018-07-12T20:50:09.438Z,14.00
2018-07-12T20:52:38.414Z,13.90
2018-07-12T20:55:07.524Z,13.90
2018-07-12T20:57:36.002Z,13.70
2018-07-12T21:00:04.593Z,13.60
2018-07-12T21:02:33.145Z,13.60
2018-07-12T21:05:01.726Z,13.70
2018-07-12T21:07:30.261Z,13.60
2018-07-12T21:09:58.704Z,13.60
2018-07-12T21:14:55.868Z,13.60
2018-07-12T21:19:52.647Z,13.20
2018-07-12T21:22:21.116Z,13.10
2018-07-12T21:24:49.848Z,13.00
2018-07-12T21:27:18.278Z,12.90
2018-07-12T21:29:46.865Z,13.00
2018-07-12T21:32:15.884Z,12.90
2018-07-12T21:34:45.024Z,12.90
2018-07-12T21:37:13.770Z,12.90
2018-07-12T21:39:42.273Z,12.80
2018-07-12T21:42:11.706Z,12.90
2018-07-12T21:44:40.232Z,12.90
2018-07-12T21:47:08.744Z,12.80
2018-07-12T21:49:37.306Z,12.80
2018-07-12T21:52:05.940Z,12.70
2018-07-12T21:54:34.325Z,12.50
2018-07-12T21:57:02.861Z,12.50
2018-07-12T21:59:31.998Z,12.50
2018-07-12T22:02:00.791Z,12.50
2018-07-12T22:04:29.285Z,12.60
2018-07-12T22:08:11.812Z,12.50
2018-07-12T22:13:10.834Z,12.30
2018-07-12T22:15:39.304Z,12.20
2018-07-12T22:20:36.375Z,12.10
2018-07-12T22:23:04.825Z,12.10
2018-07-12T22:25:33.720Z,12.00
2018-07-12T22:28:02.272Z,11.90
2018-07-12T22:30:31.752Z,11.80
2018-07-12T22:33:01.545Z,11.80
2018-07-12T22:35:30.033Z,11.80
2018-07-12T22:40:28.309Z,11.80
2018-07-12T22:42:56.980Z,11.70
2018-07-12T22:45:25.945Z,11.70
2018-07-12T22:47:55.131Z,11.60
2018-07-12T22:50:23.528Z,11.60
2018-07-12T22:52:52.091Z,11.60
2018-07-12T22:55:20.586Z,11.70
2018-07-12T22:57:49.113Z,11.70
2018-07-12T23:00:17.609Z,11.60
2018-07-12T23:02:46.073Z,11.50
2018-07-12T23:05:14.667Z,11.50
2018-07-12T23:07:43.153Z,11.50
2018-07-12T23:10:11.677Z,11.40
2018-07-12T23:12:40.109Z,11.40
2018-07-12T23:15:08.578Z,11.50
2018-07-12T23:17:37.018Z,11.50
2018-07-12T23:20:06.121Z,11.40
2018-07-12T23:22:34.587Z,11.30
2018-07-12T23:25:03.790Z,11.30
2018-07-12T23:27:32.303Z,11.30
2018-07-12T23:30:00.729Z,11.20
2018-07-12T23:32:29.276Z,11.10
2018-07-12T23:34:57.761Z,11.10
2018-07-12T23:37:26.189Z,11.10
2018-07-12T23:39:54.613Z,11.00
2018-07-12T23:42:23.133Z,11.00
2018-07-12T23:44:51.541Z,11.00
2018-07-12T23:47:19.977Z,11.00
2018-07-12T23:49:48.527Z,10.90
2018-07-12T23:52:16.914Z,10.80
2018-07-12T23:54:45.374Z,10.70
2018-07-12T23:57:13.843Z,10.80
2018-07-12T23:59:42.316Z,10.70
